Time;durP1;ratioP1;P1;durP2;ratioP2;P2;SDS_P1;SDS_P2;PMS_P1;PMS_P2;Temp;Humidity;BMP_temperature;BMP_pressure;BME280_temperature;BME280_humidity;BME280_pressure;Samples;Min_cycle;Max_cycle;Signal;HPM_P1;HPM_P2
2022/07/21 00:00:27;;;;;;;6.47;5.97;;;23.80;64.90;;;23.08;58.58;98183.47;4995755;28;20550;-79
2022/07/21 00:02:55;;;;;;;6.03;5.20;;;23.70;65.10;;;23.19;58.14;98183.06;4992752;28;20514;-80
2022/07/21 00:05:23;;;;;;;6.00;5.50;;;23.70;65.20;;;23.13;58.33;98178.72;4992884;28;20459;-77
2022/07/21 00:07:52;;;;;;;6.73;6.03;;;23.70;65.50;;;23.04;58.44;98188.75;4991218;28;20461;-78
2022/07/21 00:10:22;;;;;;;7.67;6.97;;;23.70;65.30;;;23.12;58.37;98192.78;4989977;28;20541;-82
2022/07/21 00:12:50;;;;;;;6.80;6.20;;;23.70;65.90;;;23.13;58.19;98184.25;4993619;28;20471;-82
2022/07/21 00:15:22;;;;;;;6.10;5.50;;;23.70;65.50;;;23.04;58.45;98197.81;4990030;28;20476;-80
2022/07/21 00:17:50;;;;;;;6.80;6.10;;;23.60;65.60;;;23.03;57.87;98200.88;4993693;28;20497;-79
2022/07/21 00:20:19;;;;;;;6.53;6.03;;;23.60;65.20;;;23.15;57.58;98200.47;4991954;28;20518;-83
2022/07/21 00:22:46;;;;;;;5.87;5.30;;;23.70;64.90;;;23.24;56.95;98206.97;4990689;28;20448;-79
2022/07/21 00:25:15;;;;;;;7.00;6.20;;;23.80;64.50;;;23.26;57.04;98212.16;5005351;28;20461;-82
2022/07/21 00:27:43;;;;;;;6.40;5.80;;;23.80;64.30;;;23.32;56.65;98213.78;4991679;28;20474;-80
2022/07/21 00:30:15;;;;;;;6.57;5.60;;;23.80;64.10;;;23.27;56.58;98205.56;4988955;28;20906;-79
2022/07/21 00:32:43;;;;;;;5.63;4.90;;;23.90;63.80;;;23.22;56.50;98209.22;4994819;28;20592;-81
2022/07/21 00:35:12;;;;;;;4.80;4.40;;;23.90;63.80;;;23.17;56.89;98207.31;4985957;28;20471;-78
2022/07/21 00:37:40;;;;;;;4.57;4.27;;;23.80;63.80;;;23.00;57.66;98196.78;4990681;28;20533;-81
2022/07/21 00:40:10;;;;;;;4.30;3.93;;;23.70;64.40;;;22.82;58.26;98179.06;4997092;28;20584;-80
2022/07/21 00:42:38;;;;;;;4.20;3.80;;;23.50;64.80;;;22.54;59.35;98166.97;4989950;28;20460;-79
2022/07/21 00:45:07;;;;;;;4.57;3.80;;;23.30;65.60;;;22.20;60.56;98165.88;5001084;28;20455;-77
2022/07/21 00:47:36;;;;;;;4.73;4.33;;;23.00;66.80;;;22.08;61.05;98155.25;4991373;28;20460;-80
2022/07/21 00:50:08;;;;;;;4.27;3.87;;;22.80;67.80;;;21.98;61.80;98133.31;5004807;28;21047;-78
2022/07/21 00:52:36;;;;;;;4.70;4.33;;;22.70;68.70;;;22.13;61.12;98093.88;4994460;28;21024;-75
2022/07/21 00:55:03;;;;;;;4.03;3.73;;;22.80;69.20;;;22.02;61.64;98096.72;4991364;28;20582;-79
2022/07/21 00:57:31;;;;;;;5.17;4.77;;;22.70;69.30;;;21.92;61.92;98085.81;4999946;28;21287;-78
2022/07/21 00:59:58;;;;;;;5.00;4.20;;;22.70;69.70;;;22.09;61.51;98074.38;5000890;28;21329;-80
2022/07/21 01:02:26;;;;;;;5.10;4.67;;;22.70;70.00;;;21.93;61.61;98076.47;4998654;28;20552;-79
2022/07/21 01:04:55;;;;;;;4.40;4.00;;;22.70;70.40;;;21.82;63.03;98069.41;4990087;28;20542;-78
2022/07/21 01:07:22;;;;;;;4.73;4.33;;;22.60;71.50;;;21.66;64.20;98077.78;4996932;28;20950;-81
2022/07/21 01:09:50;;;;;;;5.20;4.80;;;22.40;72.80;;;21.52;64.97;98067.41;4995775;28;20888;-74
2022/07/21 01:12:18;;;;;;;5.10;4.70;;;22.30;74.10;;;21.43;66.70;98069.09;5041876;28;20446;-75
2022/07/21 01:14:45;;;;;;;4.97;4.60;;;22.20;76.40;;;21.37;65.95;98086.75;5027370;28;21278;-73
2022/07/21 01:17:13;;;;;;;5.00;4.50;;;22.10;76.30;;;21.23;67.20;98073.66;5027804;28;20466;-76
2022/07/21 01:19:40;;;;;;;4.50;4.10;;;21.90;78.80;;;21.09;67.99;98035.00;5006222;28;20494;-78
2022/07/21 01:22:09;;;;;;;6.20;4.87;;;21.80;80.00;;;20.73;72.03;98048.06;5005464;28;20513;-77
2022/07/21 01:24:36;;;;;;;5.50;5.00;;;21.50;84.10;;;20.59;72.75;98073.38;5005034;28;20461;-77
2022/07/21 01:27:03;;;;;;;6.63;5.30;;;21.30;86.50;;;20.93;72.29;98100.16;5000603;28;20462;-78
2022/07/21 01:29:31;;;;;;;5.50;5.00;;;21.50;87.50;;;20.89;73.41;98092.78;4999794;28;20461;-78
2022/07/21 01:31:58;;;;;;;5.90;5.20;;;21.50;89.30;;;20.88;73.51;98091.97;4996401;28;20558;-78
2022/07/21 01:34:25;;;;;;;6.37;4.90;;;21.50;90.10;;;20.92;74.08;98104.03;5001688;28;20461;-73
2022/07/21 01:36:53;;;;;;;6.97;6.27;;;21.50;90.60;;;20.79;75.36;98099.09;5010045;28;20474;-76
2022/07/21 01:42:07;;;;;;;5.80;5.30;;;21.30;92.00;;;20.59;77.97;98084.34;5006107;28;20853;-77
2022/07/21 01:44:35;;;;;;;6.07;5.63;;;21.30;94.30;;;20.29;80.60;98046.84;5002947;28;20545;-76
2022/07/21 01:47:02;;;;;;;5.87;5.30;;;21.20;94.70;;;20.38;76.11;98089.09;4995640;28;20466;-77
2022/07/21 01:49:29;;;;;;;5.80;5.30;;;21.10;91.90;;;20.42;78.55;98089.34;5002132;28;20470;-74
2022/07/21 01:51:56;;;;;;;5.63;5.13;;;21.10;93.50;;;20.38;77.41;98089.88;4995710;28;20503;-77
2022/07/21 01:54:25;;;;;;;5.77;5.27;;;21.10;92.50;;;20.34;77.71;98088.81;4993510;28;20552;-75
2022/07/21 01:56:52;;;;;;;5.33;4.93;;;21.10;92.80;;;20.48;78.08;98094.56;4992927;28;20527;-78
2022/07/21 01:59:20;;;;;;;6.23;5.70;;;21.10;93.10;;;20.53;78.92;98085.47;4992611;28;20554;-79
2022/07/21 02:01:47;;;;;;;5.70;5.20;;;21.20;93.90;;;20.44;77.45;98079.72;4993037;28;20600;-81
2022/07/21 02:04:15;;;;;;;5.53;5.10;;;21.20;93.20;;;20.30;80.66;98071.28;4995047;28;20493;-76
2022/07/21 02:06:43;;;;;;;6.40;5.80;;;21.10;94.80;;;20.21;79.21;98070.19;4991758;28;20844;-78
2022/07/21 02:09:10;;;;;;;5.00;4.63;;;20.90;93.50;;;20.16;77.94;98072.94;4994396;28;20479;-77
2022/07/21 02:11:39;;;;;;;5.70;5.30;;;20.90;93.30;;;20.02;77.10;98070.78;5006880;28;20520;-77
2022/07/21 02:14:07;;;;;;;5.50;5.00;;;20.80;92.20;;;20.27;78.43;98082.81;4994142;28;20462;-77
2022/07/21 02:16:34;;;;;;;5.90;5.40;;;20.90;93.50;;;20.10;79.05;98072.97;4987572;28;20494;-77
2022/07/21 02:19:02;;;;;;;6.47;5.97;;;20.80;93.80;;;20.06;79.22;98079.28;4993537;28;20474;-78
2022/07/21 02:21:29;;;;;;;5.77;5.33;;;20.80;93.50;;;20.22;78.43;98085.53;4989559;28;20480;-78
2022/07/21 02:23:57;;;;;;;6.27;5.77;;;20.80;93.60;;;20.06;79.17;98069.13;4993249;28;21490;-79
2022/07/21 02:26:24;;;;;;;6.60;6.00;;;20.80;93.60;;;20.13;79.31;98073.50;4995535;28;20528;-78
2022/07/21 02:28:53;;;;;;;5.90;5.50;;;20.80;93.90;;;20.05;79.05;98074.88;4993447;28;20458;-79
2022/07/21 02:31:20;;;;;;;6.33;5.83;;;20.80;93.50;;;20.00;78.06;98075.72;4989238;28;20973;-79
2022/07/21 02:33:48;;;;;;;6.70;6.10;;;20.80;93.00;;;20.03;79.26;98071.59;4992265;28;20470;-78
2022/07/21 02:36:15;;;;;;;6.47;5.67;;;20.80;93.70;;;20.18;78.81;98068.84;5008134;28;20469;-78
2022/07/21 02:38:44;;;;;;;6.57;6.00;;;20.80;93.50;;;20.17;79.34;98071.84;4993817;28;21074;-80
2022/07/21 02:41:11;;;;;;;9.33;6.20;;;20.80;93.90;;;20.50;77.72;98092.34;4993960;28;21278;-79
2022/07/21 02:43:39;;;;;;;8.87;6.17;;;21.00;93.40;;;20.57;77.55;98097.53;4992539;28;20456;-78
2022/07/21 02:46:07;;;;;;;6.27;5.77;;;21.20;92.90;;;20.56;77.49;98106.88;4992061;28;20459;-80
2022/07/21 02:48:35;;;;;;;6.47;5.70;;;21.20;93.00;;;20.53;77.79;98113.75;4992061;28;20516;-78
2022/07/21 02:51:02;;;;;;;7.80;6.40;;;21.20;92.90;;;20.60;77.78;98116.19;4997204;28;20466;-80
2022/07/21 02:53:29;;;;;;;5.90;5.40;;;21.20;93.10;;;20.66;78.35;98119.75;4998784;28;21541;-80
2022/07/21 02:55:56;;;;;;;9.87;5.87;;;21.30;93.30;;;20.72;77.83;98126.84;4991512;28;20493;-80
2022/07/21 02:58:26;;;;;;;6.00;5.50;;;21.40;93.30;;;20.75;79.00;98136.47;4993987;28;20559;-81
2022/07/21 03:00:56;;;;;;;7.37;6.67;;;21.30;93.80;;;20.82;79.65;98131.50;5003512;28;20488;-80
2022/07/21 03:03:28;;;;;;;7.57;6.47;;;21.40;94.40;;;20.73;79.89;98135.91;4992303;28;20814;-78
2022/07/21 03:05:56;;;;;;;8.37;6.70;;;21.30;94.60;;;20.60;80.08;98148.28;4992959;28;20478;-79
2022/07/21 03:08:25;;;;;;;6.70;6.10;;;21.20;94.40;;;20.67;79.18;98152.38;4992178;28;20534;-79
2022/07/21 03:10:53;;;;;;;7.53;6.83;;;21.30;94.10;;;20.66;78.87;98161.72;4990221;28;20505;-80
2022/07/21 03:13:21;;;;;;;9.17;6.53;;;21.40;93.70;;;20.61;79.32;98153.50;4993902;28;20470;-79
2022/07/21 03:15:49;;;;;;;7.60;6.90;;;21.30;93.80;;;20.47;80.26;98157.94;5002478;28;20460;-79
2022/07/21 03:18:17;;;;;;;7.30;6.60;;;21.20;94.30;;;20.55;79.68;98164.78;5009591;28;20462;-80
2022/07/21 03:20:46;;;;;;;7.73;7.00;;;21.20;94.40;;;20.48;79.85;98184.28;4990521;28;20471;-81
2022/07/21 03:23:13;;;;;;;8.07;7.37;;;21.20;94.20;;;20.37;81.52;98198.00;4995961;28;20524;-81
2022/07/21 03:25:41;;;;;;;8.23;7.30;;;21.10;95.10;;;20.49;80.88;98202.38;4988370;28;20957;-80
2022/07/21 03:28:09;;;;;;;7.60;7.00;;;21.20;95.10;;;20.48;80.82;98200.72;4999410;28;20465;-78
2022/07/21 03:30:37;;;;;;;7.77;7.10;;;21.10;95.20;;;20.22;82.57;98198.00;4993038;28;20467;-80
2022/07/21 03:33:05;;;;;;;7.07;6.47;;;21.00;96.10;;;20.27;81.98;98203.50;4994603;28;20985;-79
2022/07/21 03:35:35;;;;;;;8.27;7.47;;;21.00;95.70;;;20.37;81.17;98224.63;5004022;28;20897;-77
2022/07/21 03:38:06;;;;;;;7.33;6.47;;;21.00;95.20;;;20.44;80.67;98235.31;4993521;28;20459;-78
2022/07/21 03:40:36;;;;;;;7.00;6.40;;;21.10;94.80;;;20.56;79.79;98241.34;4991536;28;21271;-77
2022/07/21 03:43:07;;;;;;;7.93;7.20;;;21.20;94.40;;;20.31;81.55;98262.19;4992337;28;20464;-81
2022/07/21 03:45:36;;;;;;;8.83;7.80;;;21.10;95.30;;;20.42;81.07;98264.97;4991260;28;20462;-80
2022/07/21 03:48:07;;;;;;;8.03;7.43;;;21.10;95.10;;;20.28;81.40;98265.50;4992986;28;20469;-79
2022/07/21 03:50:35;;;;;;;8.60;7.90;;;21.00;95.20;;;19.98;82.16;98253.41;4997634;28;21468;-79
2022/07/21 03:53:04;;;;;;;9.23;8.30;;;20.80;95.10;;;19.83;83.37;98254.13;4997912;28;20459;-77
2022/07/21 03:55:32;;;;;;;10.67;9.70;;;20.60;96.30;;;19.68;83.92;98261.22;4990293;28;20500;-79
2022/07/21 03:58:01;;;;;;;10.40;9.60;;;20.50;96.80;;;19.54;85.09;98260.91;4991975;28;20834;-78
2022/07/21 04:00:31;;;;;;;11.40;10.50;;;20.30;97.50;;;19.54;85.02;98251.84;4992071;28;20485;-77
2022/07/21 04:02:59;;;;;;;12.40;11.30;;;20.30;98.00;;;19.33;86.01;98250.94;4995908;28;20457;-78
2022/07/21 04:05:30;;;;;;;14.23;10.70;;;20.10;98.50;;;19.49;85.70;98266.38;5012423;28;20492;-77
2022/07/21 04:07:58;;;;;;;10.80;9.30;;;20.20;98.80;;;19.45;84.20;98215.94;5016590;28;20952;-77
2022/07/21 04:10:29;;;;;;;11.80;10.80;;;20.30;97.80;;;19.66;84.64;98248.91;5021679;28;20511;-76
2022/07/21 04:12:59;;;;;;;11.77;10.70;;;20.40;97.60;;;19.44;85.71;98251.84;5010872;28;20509;-77
2022/07/21 04:15:26;;;;;;;11.80;10.80;;;20.30;98.00;;;19.29;87.74;98245.22;5007453;28;21021;-78
2022/07/21 04:17:54;;;;;;;11.80;10.70;;;20.10;99.90;;;19.31;89.74;98242.19;4991759;28;20483;-80
2022/07/21 04:20:22;;;;;;;12.20;11.03;;;20.00;99.90;;;19.22;90.67;98234.50;4995684;28;20472;-78
2022/07/21 04:22:50;;;;;;;12.63;11.40;;;20.00;99.90;;;19.16;90.19;98234.72;5000958;28;20468;-79
2022/07/21 04:25:20;;;;;;;12.57;11.43;;;19.90;99.90;;;19.23;89.65;98233.41;4996150;28;20492;-76
2022/07/21 04:27:50;;;;;;;13.40;11.30;;;19.90;99.90;;;19.47;87.82;98249.38;4997735;28;20492;-78
2022/07/21 04:30:23;;;;;;;11.57;10.67;;;20.10;99.90;;;19.62;86.33;98262.31;4995757;28;20461;-78
2022/07/21 04:32:51;;;;;;;12.27;10.97;;;20.30;99.50;;;19.75;86.54;98273.88;4998768;28;20448;-78
2022/07/21 04:35:19;;;;;;;13.40;12.23;;;20.50;99.70;;;19.81;87.08;98290.06;4987600;28;20546;-80
2022/07/21 04:37:47;;;;;;;14.33;12.97;;;20.60;99.90;;;19.80;84.89;98288.41;4976171;28;20455;-81
2022/07/21 04:40:15;;;;;;;13.30;10.93;;;20.60;97.90;;;19.98;83.92;98307.41;5001138;28;20566;-86
2022/07/21 04:42:43;;;;;;;14.53;13.23;;;20.70;97.50;;;19.99;86.17;98311.78;5011413;28;20612;-87
2022/07/21 04:45:15;;;;;;;14.47;13.27;;;20.70;99.70;;;20.10;85.79;98316.19;5000370;28;21106;-84
2022/07/21 04:47:44;;;;;;;14.00;12.80;;;20.80;99.20;;;20.21;83.88;98328.00;4994181;28;20523;-82
2022/07/21 04:50:12;;;;;;;15.43;14.03;;;20.80;97.30;;;20.14;84.27;98335.69;4991491;28;20862;-84
2022/07/21 04:52:39;;;;;;;15.73;14.10;;;20.80;97.30;;;20.01;85.90;98328.78;4999260;28;20467;-77
2022/07/21 04:55:08;;;;;;;16.73;15.00;;;20.70;99.00;;;19.95;87.28;98315.06;5012607;28;20456;-77
2022/07/21 04:57:39;;;;;;;16.33;14.97;;;20.60;99.90;;;19.74;86.70;98292.22;5014536;28;20534;-80
2022/07/21 05:00:09;;;;;;;24.00;18.80;;;20.50;99.70;;;19.63;87.93;98309.72;4991893;28;21076;-73
2022/07/21 05:02:38;;;;;;;18.00;16.50;;;20.40;99.90;;;19.50;91.33;98311.03;4997579;28;20474;-81
2022/07/21 05:05:06;;;;;;;17.40;15.80;;;20.30;99.90;;;19.58;92.03;98316.00;4997017;28;20568;-81
2022/07/21 05:07:34;;;;;;;16.53;15.20;;;20.30;99.90;;;19.32;90.00;98309.56;4996355;28;20468;-79
2022/07/21 05:10:05;;;;;;;17.90;16.30;;;20.10;99.90;;;19.50;91.04;98325.56;4993435;28;20468;-82
2022/07/21 05:12:33;;;;;;;19.40;17.60;;;20.20;99.90;;;19.52;92.88;98326.13;5013740;28;20957;-78
2022/07/21 05:15:00;;;;;;;19.27;17.60;;;20.20;99.90;;;19.42;92.83;98323.31;4994059;28;20461;-82
2022/07/21 05:17:27;;;;;;;19.53;17.67;;;20.20;99.90;;;19.46;93.51;98318.97;4993991;28;20465;-73
2022/07/21 05:19:56;;;;;;;19.30;17.60;;;20.20;99.90;;;19.48;91.49;98318.69;4989772;28;20459;-78
2022/07/21 05:22:23;;;;;;;17.90;16.30;;;20.20;99.90;;;19.43;91.41;98313.22;4993339;28;20479;-83
2022/07/21 05:24:51;;;;;;;19.10;17.50;;;20.20;99.90;;;19.26;90.82;98314.22;4997205;28;20462;-77
2022/07/21 05:27:18;;;;;;;19.50;17.80;;;20.10;99.90;;;19.05;91.33;98286.69;4998834;28;20501;-79
2022/07/21 05:29:45;;;;;;;18.70;17.10;;;20.10;99.90;;;19.36;91.96;98327.94;5013818;28;20572;-74
2022/07/21 05:32:13;;;;;;;20.90;19.17;;;20.10;99.90;;;19.32;92.64;98337.78;4992429;28;20462;-80
2022/07/21 05:34:40;;;;;;;20.80;18.43;;;20.10;99.90;;;19.24;92.43;98341.84;4999588;28;20514;-75
2022/07/21 05:37:09;;;;;;;20.80;19.07;;;20.10;99.90;;;18.95;93.93;98317.53;5012737;28;20465;-79
2022/07/21 05:39:36;;;;;;;27.73;25.13;;;19.90;99.90;;;19.27;96.39;98350.63;5003711;28;20463;-76
2022/07/21 05:42:04;;;;;;;23.47;21.37;;;20.00;99.90;;;19.18;94.96;98353.84;4997332;28;21936;-80
2022/07/21 05:44:31;;;;;;;22.93;20.93;;;20.00;99.90;;;19.29;94.43;98359.41;5004117;28;20480;-82
2022/07/21 05:46:58;;;;;;;22.10;20.40;;;20.00;99.90;;;19.37;94.36;98375.34;4996570;28;20454;-79
2022/07/21 05:49:25;;;;;;;22.73;20.70;;;20.00;99.90;;;19.46;92.95;98360.06;4998691;28;20471;-81
2022/07/21 05:51:53;;;;;;;22.87;20.60;;;20.20;99.90;;;19.49;93.92;98370.50;4998573;28;20457;-71
2022/07/21 05:54:21;;;;;;;26.43;21.20;;;20.20;99.90;;;19.12;94.00;98324.78;4998730;28;20962;-75
2022/07/21 05:56:49;;;;;;;23.80;21.37;;;20.20;99.90;;;19.51;94.54;98382.03;5010024;28;20456;-76
2022/07/21 05:59:16;;;;;;;24.10;22.10;;;20.30;99.90;;;19.50;93.96;98371.31;5005008;28;20454;-76
2022/07/21 06:01:43;;;;;;;23.70;21.60;;;20.30;99.90;;;19.56;94.15;98374.91;4994672;28;20473;-75
2022/07/21 06:04:11;;;;;;;22.60;20.40;;;20.30;99.90;;;19.65;91.91;98371.38;4998755;28;20465;-77
2022/07/21 06:06:38;;;;;;;24.47;21.93;;;20.40;99.90;;;19.74;92.37;98373.63;5001737;28;20973;-76
2022/07/21 06:09:05;;;;;;;22.27;20.17;;;20.40;99.90;;;19.71;91.14;98372.25;5018982;28;20877;-75
2022/07/21 06:11:34;;;;;;;24.37;22.27;;;20.50;99.90;;;19.81;90.72;98376.94;5004419;28;20461;-77
2022/07/21 06:14:01;;;;;;;23.63;21.63;;;20.60;99.90;;;19.90;91.06;98380.00;5001164;28;20480;-73
2022/07/21 06:16:28;;;;;;;24.10;21.90;;;20.70;99.90;;;20.24;88.56;98376.84;4996193;28;20466;-76
2022/07/21 06:18:55;;;;;;;22.50;20.70;;;20.90;99.90;;;20.37;86.59;98383.75;5003017;28;20529;-77
2022/07/21 06:21:22;;;;;;;21.80;20.00;;;21.00;98.80;;;20.43;85.12;98381.84;5005934;28;20481;-77
2022/07/21 06:23:50;;;;;;;22.23;20.17;;;21.10;97.60;;;20.57;84.22;98377.47;5020504;28;20477;-73
2022/07/21 06:26:17;;;;;;;19.93;18.33;;;21.20;96.90;;;20.18;84.63;98337.63;5016017;28;20463;-73
2022/07/21 06:28:46;;;;;;;21.70;20.10;;;21.10;96.60;;;20.52;84.37;98378.28;5019414;28;20459;-74
2022/07/21 06:31:13;;;;;;;22.37;20.33;;;21.20;96.70;;;20.24;83.74;98330.22;4996293;28;20480;-74
2022/07/21 06:33:40;;;;;;;22.10;20.00;;;21.30;96.00;;;20.62;82.82;98380.22;5012576;28;20464;-90
2022/07/21 06:36:09;;;;;;;21.20;19.50;;;21.30;95.30;;;20.84;80.60;98375.59;5008656;28;20466;-81
2022/07/21 06:38:36;;;;;;;24.47;22.47;;;21.50;94.00;;;20.89;82.82;98368.19;5004352;28;20452;-84
2022/07/21 06:41:04;;;;;;;21.57;19.63;;;21.60;95.40;;;21.15;80.12;98368.16;5005434;28;20522;-85
2022/07/21 06:43:31;;;;;;;21.60;19.73;;;21.70;93.90;;;21.08;81.03;98362.13;5009317;28;20498;-86
2022/07/21 06:46:00;;;;;;;22.87;21.07;;;21.80;94.20;;;21.28;79.03;98353.03;5003030;28;20461;-84
2022/07/21 06:48:27;;;;;;;22.53;20.70;;;21.90;93.20;;;21.18;81.43;98364.88;5013680;28;20518;-82
2022/07/21 06:50:56;;;;;;;22.30;20.17;;;21.90;94.60;;;21.54;78.30;98368.63;5016402;28;20469;-76
2022/07/21 06:53:24;;;;;;;22.10;20.40;;;22.10;93.10;;;21.56;76.94;98370.00;5031855;28;20454;-75
2022/07/21 06:55:52;;;;;;;24.10;21.63;;;22.20;91.90;;;21.50;77.08;98371.09;5024214;28;20467;-75
2022/07/21 06:58:22;;;;;;;23.10;21.13;;;22.10;91.70;;;21.44;78.51;98369.50;5046407;28;20461;-73
2022/07/21 07:00:50;;;;;;;22.13;20.30;;;22.20;92.30;;;21.73;75.81;98371.63;5046011;28;20461;-72
2022/07/21 07:03:20;;;;;;;23.23;20.93;;;22.30;91.40;;;21.58;75.58;98375.22;5031064;28;20475;-79
2022/07/21 07:05:49;;;;;;;22.60;20.60;;;22.30;90.70;;;21.15;76.58;98318.69;5043718;28;20442;-73
2022/07/21 07:08:17;;;;;;;22.27;20.37;;;22.20;91.30;;;21.48;77.02;98368.66;5039426;28;20449;-73
2022/07/21 07:10:46;;;;;;;23.33;21.23;;;22.20;91.40;;;21.56;77.63;98370.00;5030031;28;20439;-72
2022/07/21 07:13:15;;;;;;;22.57;20.57;;;22.30;91.90;;;21.65;73.99;98332.59;5023055;28;20535;-73
2022/07/21 07:15:42;;;;;;;22.87;20.57;;;22.50;90.20;;;21.97;74.19;98369.06;5026379;28;20454;-73
2022/07/21 07:18:10;;;;;;;22.63;20.63;;;22.60;90.20;;;21.84;74.06;98370.50;5040701;28;20454;-73
2022/07/21 07:20:39;;;;;;;24.00;21.23;;;22.60;89.60;;;21.52;75.29;98377.97;5040498;28;20465;-73
2022/07/21 07:23:06;;;;;;;21.87;20.07;;;22.40;90.00;;;21.24;76.18;98373.94;5019484;28;20474;-72
2022/07/21 07:25:33;;;;;;;22.37;20.57;;;22.10;90.30;;;21.47;76.21;98378.00;5019615;28;20466;-77
2022/07/21 07:28:01;;;;;;;23.30;21.30;;;22.10;91.00;;;21.67;75.40;98376.31;5014633;28;20467;-84
2022/07/21 07:30:29;;;;;;;22.20;20.37;;;22.30;90.90;;;21.74;74.94;98379.59;5005334;28;20498;-75
2022/07/21 07:32:56;;;;;;;23.90;21.97;;;22.40;90.60;;;21.99;74.26;98388.84;5012073;28;20462;-82
2022/07/21 07:35:23;;;;;;;22.20;20.37;;;22.50;90.50;;;22.33;72.73;98387.31;5000460;28;20452;-75
2022/07/21 07:37:52;;;;;;;23.90;21.70;;;22.80;89.80;;;22.77;71.90;98402.19;5001507;28;20495;-77
2022/07/21 07:40:22;;;;;;;20.80;19.10;;;23.30;89.30;;;23.02;69.75;98394.84;5001129;28;20517;-74
2022/07/21 07:42:51;;;;;;;21.30;19.63;;;23.60;87.50;;;23.13;69.45;98399.16;5003804;28;20512;-77
2022/07/21 07:45:18;;;;;;;21.93;20.10;;;23.70;86.70;;;23.02;68.63;98400.34;4998879;28;20475;-76
2022/07/21 07:47:46;;;;;;;21.80;19.90;;;23.70;85.80;;;23.02;69.92;98392.91;5015376;28;20453;-75
2022/07/21 07:50:14;;;;;;;21.93;19.83;;;23.60;86.80;;;23.54;67.72;98392.44;4998588;28;20463;-75
2022/07/21 07:52:44;;;;;;;23.10;21.20;;;24.00;86.00;;;23.42;67.34;98395.59;4996101;28;20470;-76
2022/07/21 07:55:14;;;;;;;21.43;19.73;;;24.10;84.60;;;23.66;66.11;98389.28;4997069;28;21021;-77
2022/07/21 07:57:43;;;;;;;21.67;20.00;;;24.30;84.40;;;23.70;65.47;98404.13;5014450;28;20473;-76
2022/07/21 08:00:13;;;;;;;22.30;20.60;;;24.40;83.70;;;23.26;66.42;98394.06;5002971;28;20462;-74
2022/07/21 08:02:41;;;;;;;21.67;19.80;;;24.10;83.50;;;23.24;67.33;98393.53;5002643;28;20475;-75
2022/07/21 08:05:10;;;;;;;20.20;18.50;;;24.00;84.20;;;22.79;68.15;98397.22;4998459;28;20806;-75
2022/07/21 08:07:38;;;;;;;24.30;21.90;;;23.70;84.10;;;21.98;69.98;98343.19;4987627;28;20471;-74
2022/07/21 08:10:06;;;;;;;23.30;21.20;;;23.20;85.00;;;22.31;70.70;98401.34;5020886;28;20919;-74
2022/07/21 08:12:35;;;;;;;22.70;20.77;;;23.10;86.20;;;22.11;71.64;98384.94;5023061;28;20478;-74
2022/07/21 08:15:04;;;;;;;21.63;19.83;;;22.90;87.00;;;22.62;70.04;98392.94;5012568;28;20482;-74
2022/07/21 08:17:31;;;;;;;20.43;18.63;;;23.10;86.60;;;22.92;67.86;98376.47;5001056;28;20465;-76
2022/07/21 08:19:58;;;;;;;19.87;18.27;;;23.40;85.60;;;23.21;66.42;98389.44;4995902;28;20989;-75
2022/07/21 08:22:26;;;;;;;21.23;19.53;;;23.80;84.20;;;23.76;65.44;98378.16;4994301;28;20506;-75
2022/07/21 08:24:54;;;;;;;20.90;19.10;;;24.30;84.00;;;23.67;63.73;98379.91;4998135;28;20527;-73
2022/07/21 08:27:21;;;;;;;19.37;17.83;;;24.40;82.20;;;23.87;62.38;98389.03;5013235;28;20472;-75
2022/07/21 08:29:52;;;;;;;20.13;18.43;;;24.60;80.80;;;23.86;62.69;98388.22;4997760;28;20475;-74
2022/07/21 08:32:20;;;;;;;21.37;19.37;;;24.60;80.90;;;23.75;63.48;98387.53;4998748;28;20967;-75
2022/07/21 08:34:48;;;;;;;19.43;17.73;;;24.60;80.90;;;24.35;61.15;98384.59;4997202;28;20470;-70
2022/07/21 08:37:15;;;;;;;18.53;16.87;;;25.00;80.20;;;24.56;61.20;98393.38;4997912;28;21020;-73
2022/07/21 08:39:43;;;;;;;18.43;16.93;;;25.20;79.60;;;24.85;58.81;98395.19;4995839;28;20600;-69
2022/07/21 08:42:11;;;;;;;19.03;17.23;;;25.50;77.80;;;24.30;59.53;98402.06;4996896;28;20486;-72
2022/07/21 08:44:38;;;;;;;17.93;16.53;;;25.30;77.00;;;24.07;60.15;98400.97;4997894;28;20536;-74
2022/07/21 08:47:09;;;;;;;18.97;17.37;;;24.90;77.30;;;24.00;61.54;98399.34;4996926;28;20475;-79
2022/07/21 08:49:38;;;;;;;18.67;17.07;;;24.80;78.30;;;24.31;59.26;98398.97;4999829;28;21150;-77
2022/07/21 08:52:08;;;;;;;17.30;15.80;;;24.90;77.50;;;24.05;58.94;98407.63;5009629;28;20498;-76
2022/07/21 08:54:35;;;;;;;16.20;14.90;;;24.80;76.20;;;23.69;60.23;98408.00;4999167;28;20458;-76
2022/07/21 08:57:03;;;;;;;16.00;14.70;;;24.60;76.80;;;23.87;59.83;98411.09;5001455;28;21103;-76
2022/07/21 08:59:31;;;;;;;15.43;14.17;;;24.40;76.90;;;24.03;58.66;98409.03;4999582;28;20821;-77
2022/07/21 09:01:58;;;;;;;14.47;13.30;;;24.60;75.80;;;24.39;57.16;98413.25;5001327;28;20521;-75
2022/07/21 09:04:30;;;;;;;14.70;13.50;;;25.00;74.70;;;25.29;55.34;98410.47;4998406;28;20513;-77
2022/07/21 09:07:01;;;;;;;15.47;14.17;;;25.60;74.50;;;25.88;54.31;98404.44;4999655;28;20541;-76
2022/07/21 09:09:31;;;;;;;15.03;13.83;;;26.20;73.30;;;26.37;52.15;98400.41;5003544;28;20468;-76
2022/07/21 09:12:00;;;;;;;13.73;12.63;;;26.80;71.20;;;27.05;50.16;98403.28;4994134;28;20464;-76
2022/07/21 09:14:30;;;;;;;14.57;13.37;;;27.40;69.60;;;26.54;50.79;98408.88;4998317;28;20555;-79
2022/07/21 09:17:00;;;;;;;14.13;12.93;;;27.30;68.50;;;25.78;51.31;98410.19;5000166;28;20459;-77
2022/07/21 09:19:33;;;;;;;12.53;11.53;;;26.80;66.90;;;26.42;48.86;98408.59;5000671;28;20546;-78
2022/07/21 09:22:02;;;;;;;10.60;9.80;;;27.00;65.60;;;25.95;49.59;98403.22;4998227;28;20517;-78
2022/07/21 09:24:34;;;;;;;12.37;11.07;;;26.60;65.90;;;26.20;49.57;98410.19;4996763;28;20460;-73
2022/07/21 09:27:07;;;;;;;12.03;11.13;;;26.70;66.20;;;26.34;49.08;98403.81;4995841;28;20477;-77
2022/07/21 09:29:40;;;;;;;13.37;12.40;;;26.90;65.30;;;25.79;50.65;98405.47;4992544;28;20506;-75
2022/07/21 09:32:24;;;;;;;11.63;10.63;;;26.50;66.20;;;25.38;51.23;98371.09;5003570;28;20466;-77
2022/07/21 09:34:55;;;;;;;13.07;12.07;;;26.40;66.30;;;25.53;52.42;98408.72;4999332;28;20460;-78
2022/07/21 09:37:24;;;;;;;12.80;11.80;;;26.20;67.40;;;25.48;52.02;98368.16;5013764;28;20950;-79
2022/07/21 09:39:53;;;;;;;13.10;12.00;;;26.40;67.40;;;26.61;49.01;98402.09;5005983;28;20482;-78
2022/07/21 09:42:25;;;;;;;12.03;10.93;;;27.00;66.00;;;26.50;49.71;98412.59;5010263;28;20488;-77
2022/07/21 09:44:56;;;;;;;12.37;11.37;;;27.00;65.70;;;26.28;48.64;98409.44;5005591;28;20469;-76
2022/07/21 09:47:26;;;;;;;12.80;11.70;;;26.90;64.30;;;25.68;50.36;98404.84;5007963;28;20456;-76
2022/07/21 09:49:57;;;;;;;12.00;10.90;;;26.60;64.80;;;25.78;50.42;98403.81;5009042;28;20443;-75
2022/07/21 09:52:29;;;;;;;12.00;10.90;;;26.50;65.10;;;25.60;51.08;98400.84;5025284;28;20470;-78
2022/07/21 09:54:58;;;;;;;12.20;10.97;;;26.40;65.20;;;26.12;49.99;98406.19;5007155;28;20499;-77
2022/07/21 09:57:26;;;;;;;12.00;11.00;;;26.80;64.80;;;26.55;48.56;98402.22;5006746;28;20449;-76
2022/07/21 09:59:55;;;;;;;12.67;11.67;;;27.10;64.30;;;26.12;49.93;98397.03;5002079;28;20954;-77
2022/07/21 10:02:24;;;;;;;11.50;10.50;;;26.90;64.30;;;26.44;48.48;98393.31;5000744;28;20487;-76
2022/07/21 10:05:06;;;;;;;12.10;10.90;;;27.10;63.70;;;26.16;49.29;98392.53;4998085;28;20538;-76
2022/07/21 10:07:37;;;;;;;12.07;10.90;;;27.00;63.80;;;26.33;48.92;98385.56;5002345;28;20467;-77
2022/07/21 10:10:05;;;;;;;12.57;11.47;;;27.00;64.00;;;26.11;49.19;98387.09;5002807;28;20944;-76
2022/07/21 10:12:33;;;;;;;11.70;10.80;;;26.90;63.30;;;25.80;49.84;98383.03;5005782;28;20533;-78
2022/07/21 10:15:01;;;;;;;12.67;11.57;;;26.80;63.70;;;25.76;50.31;98378.41;5003282;28;20463;-75
2022/07/21 10:17:29;;;;;;;12.20;11.17;;;26.60;64.20;;;26.35;49.05;98372.22;5004005;28;20537;-76